首页
METAR-TAF:

METAR-TAF

机场 :

丹尼爾·井上國際機場

檀香山, 夏威夷州, 美国

纬度: 21-19-39N, 经度: 157-56-35W, 海拔: 3米

当前天气观测

该预报发布于35分钟前的03:53 UTC
风速11节,风向东北,有时为26节阵风
温度 27°C
湿度 58%
气压 1018 hPa
能見度: 16.1公里
少量云层高于2500英尺
散云层高于4000英尺

METAR: PHNL 150353Z 05011G26KT 10SM FEW025 SCT040 27/18 A3005 RMK AO2 PK WND 03026/0349 SLP175 T02720183 $

时间: 18:28 (04:28 UTC)

预报

该预报发布于2小时和25分钟前的02:03 UTC
预报有效从15日的 02点(UTC)到 16日的 06点(UTC)
风速16节,风向东北,有时为24节阵风
能見度: 10公里
少量云层高于2500英尺
散云层高于4500英尺
从 15日的 0600点(UTC)
风速10节,风向东转东北
能見度: 10公里
少量云层高于2500英尺
多云层高于4500英尺
从 15日的 1900点(UTC)
风速16节,风向东转东北,有时为24节阵风
能見度: 10公里
少量云层高于2500英尺
散云层高于5000英尺
从 16日的 0500点(UTC)
风速12节,风向东北,有时为20节阵风
能見度: 10公里
少量云层高于2500英尺
多云层高于4500英尺

TAF: PHNL 150203Z 1502/1606 05016G24KT P6SM FEW025 SCT045 FM150600 06010KT P6SM FEW025 BKN045 FM151900 06016G24KT P6SM FEW025 SCT050 FM160500 05012G20KT P6SM FEW025 BKN045

超过4000个机场的气象观测和天气预报(METAR&TAF报告)。

可查询的气象台以黄色和红色小点在地图上表示。

将鼠标移到小点上方,可查看气象台名称。

然后点击查看天气观测和预报。

如需切换地图:点击带黑十字的绿色按钮放大地图;点击带横线的绿色按钮缩小地图;或者点击绿色箭头查看邻近地区的地图。


METAR-TAF: